createdAt,value
2019-03-20T00:00:50.149Z,96868.15
2019-03-20T00:01:53.576Z,96868.70
2019-03-20T00:02:57.173Z,96867.27
2019-03-20T00:04:00.688Z,96870.27
2019-03-20T00:05:05.457Z,96864.81
2019-03-20T00:06:09.047Z,96866.30
2019-03-20T00:07:12.492Z,96862.39
2019-03-20T00:08:15.991Z,96864.66
2019-03-20T00:09:19.413Z,96867.91
2019-03-20T00:10:23.503Z,96871.78
2019-03-20T00:11:26.924Z,96875.63
2019-03-20T00:12:30.356Z,96873.86
2019-03-20T00:13:33.775Z,96871.00
2019-03-20T00:14:37.226Z,96867.38
2019-03-20T00:15:40.687Z,96872.19
2019-03-20T00:16:44.284Z,96872.12
2019-03-20T00:17:47.724Z,96875.03
2019-03-20T00:18:51.204Z,96874.48
2019-03-20T00:19:54.734Z,96874.66
2019-03-20T00:20:58.248Z,96880.27
2019-03-20T00:22:01.684Z,96882.81
2019-03-20T00:23:05.240Z,96879.56
2019-03-20T00:24:08.702Z,96878.11
2019-03-20T00:25:12.591Z,96889.04
2019-03-20T00:26:16.022Z,96879.25
2019-03-20T00:27:19.514Z,96887.23
2019-03-20T00:28:22.949Z,96876.36
2019-03-20T00:29:26.378Z,96879.55
2019-03-20T00:30:29.828Z,96876.20
2019-03-20T00:31:33.254Z,96874.33
2019-03-20T00:32:36.688Z,96877.98
2019-03-20T00:33:40.117Z,96880.58
2019-03-20T00:34:43.546Z,96886.40
2019-03-20T00:35:46.980Z,96880.37
2019-03-20T00:36:50.500Z,96874.49
2019-03-20T00:37:53.999Z,96879.11
2019-03-20T00:38:57.434Z,96883.94
2019-03-20T00:40:01.006Z,96882.42
2019-03-20T00:41:04.594Z,96880.72
2019-03-20T00:42:09.537Z,96878.70
2019-03-20T00:43:13.008Z,96874.22
2019-03-20T00:44:16.434Z,96876.09
2019-03-20T00:45:20.931Z,96855.20
2019-03-20T00:46:24.424Z,96878.34
2019-03-20T00:47:27.865Z,96882.03
2019-03-20T00:48:31.357Z,96880.73
2019-03-20T00:49:34.934Z,96886.98
2019-03-20T00:50:38.374Z,96885.41
2019-03-20T00:51:41.842Z,96887.86
2019-03-20T00:52:45.340Z,96887.54
2019-03-20T00:53:48.782Z,96879.09
2019-03-20T00:54:52.218Z,96879.19
2019-03-20T00:55:55.713Z,96873.92
2019-03-20T00:56:59.165Z,96874.45
2019-03-20T00:58:02.623Z,96872.68
2019-03-20T00:59:06.043Z,96867.69
2019-03-20T01:00:20.267Z,96872.42
2019-03-20T01:01:23.694Z,96877.32
2019-03-20T01:02:27.141Z,96872.83
2019-03-20T01:03:30.588Z,96870.80
2019-03-20T01:04:34.043Z,96872.44
2019-03-20T01:05:37.688Z,96873.36
2019-03-20T01:06:41.190Z,96870.23
2019-03-20T01:07:44.975Z,96867.78
2019-03-20T01:08:48.418Z,96868.63
2019-03-20T01:09:51.858Z,96862.64
2019-03-20T01:10:55.332Z,96867.32
2019-03-20T01:11:58.768Z,96866.67
2019-03-20T01:13:02.215Z,96864.75
2019-03-20T01:14:05.774Z,96866.85
2019-03-20T01:15:10.042Z,96868.58
2019-03-20T01:16:13.519Z,96870.06
2019-03-20T01:17:16.936Z,96872.30
2019-03-20T01:18:22.390Z,96872.78
2019-03-20T01:19:25.623Z,96868.78
2019-03-20T01:20:29.004Z,96873.25
2019-03-20T01:21:32.438Z,96868.10
2019-03-20T01:22:35.866Z,96873.05
2019-03-20T01:23:39.304Z,96874.35
2019-03-20T01:24:42.752Z,96873.41
2019-03-20T01:25:46.196Z,96876.13
2019-03-20T01:26:49.612Z,96880.74
2019-03-20T01:27:53.039Z,96876.95
2019-03-20T01:28:56.545Z,96878.50
2019-03-20T01:29:59.916Z,96873.41
2019-03-20T01:31:03.343Z,96872.00
2019-03-20T01:32:06.777Z,96870.23
2019-03-20T01:33:13.669Z,96872.95
2019-03-20T01:34:17.106Z,96863.80
2019-03-20T01:35:24.029Z,96873.06
2019-03-20T01:36:25.779Z,96873.78
2019-03-20T01:37:29.209Z,96877.02
2019-03-20T01:38:32.648Z,96881.22
2019-03-20T01:39:36.096Z,96876.95
2019-03-20T01:40:40.552Z,96875.38
2019-03-20T01:41:44.168Z,96878.03
2019-03-20T01:42:47.597Z,96873.58
2019-03-20T01:43:51.019Z,96866.14
2019-03-20T01:44:54.546Z,96870.45
2019-03-20T01:45:58.043Z,96869.77
2019-03-20T01:47:01.422Z,96873.31
2019-03-20T01:48:05.788Z,96871.48
2019-03-20T01:49:09.232Z,96868.69
2019-03-20T01:50:12.923Z,96870.66
2019-03-20T01:51:19.386Z,96868.47
2019-03-20T01:52:22.817Z,96870.34
2019-03-20T01:53:26.303Z,96873.77
2019-03-20T01:54:29.999Z,96868.69
2019-03-20T01:55:33.438Z,96864.27
2019-03-20T01:56:36.894Z,96865.98
2019-03-20T01:57:40.462Z,96857.93
2019-03-20T01:58:43.953Z,96870.65
2019-03-20T01:59:47.521Z,96873.41
2019-03-20T02:00:50.965Z,96868.22
2019-03-20T02:01:54.413Z,96867.28
2019-03-20T02:02:57.917Z,96866.09
2019-03-20T02:04:01.368Z,96865.86
2019-03-20T02:05:05.632Z,96870.81
2019-03-20T02:06:09.145Z,96867.52
2019-03-20T02:07:12.666Z,96870.70
2019-03-20T02:08:16.259Z,96867.05
2019-03-20T02:09:19.689Z,96863.16
2019-03-20T02:10:23.147Z,96863.48
2019-03-20T02:11:26.597Z,96857.66
2019-03-20T02:12:30.044Z,96860.37
2019-03-20T02:13:33.465Z,96860.26
2019-03-20T02:14:36.957Z,96861.36
2019-03-20T02:15:40.461Z,96854.39
2019-03-20T02:16:43.910Z,96859.95
2019-03-20T02:17:47.435Z,96859.02
2019-03-20T02:18:50.892Z,96861.66
2019-03-20T02:19:54.284Z,96861.91
2019-03-20T02:20:59.189Z,96858.02
2019-03-20T02:22:02.705Z,96858.54
2019-03-20T02:23:06.142Z,96857.93
2019-03-20T02:24:09.572Z,96859.23
2019-03-20T02:25:14.141Z,96858.02
2019-03-20T02:26:17.642Z,96861.34
2019-03-20T02:27:21.092Z,96856.23
2019-03-20T02:28:24.592Z,96862.53
2019-03-20T02:29:28.012Z,96858.83
2019-03-20T02:30:31.572Z,96853.23
2019-03-20T02:31:34.949Z,96860.05
2019-03-20T02:32:38.468Z,96861.13
2019-03-20T02:33:41.909Z,96864.44
2019-03-20T02:34:45.355Z,96862.06
2019-03-20T02:35:52.029Z,96864.64
2019-03-20T02:36:53.932Z,96859.26
2019-03-20T02:37:57.448Z,96864.84
2019-03-20T02:39:00.879Z,96857.93
2019-03-20T02:40:06.748Z,96858.58
2019-03-20T02:41:10.194Z,96864.41
2019-03-20T02:42:13.613Z,96860.50
2019-03-20T02:43:17.092Z,96859.08
2019-03-20T02:44:20.533Z,96862.02
2019-03-20T02:45:24.019Z,96857.70
2019-03-20T02:46:27.448Z,96855.81
2019-03-20T02:47:30.943Z,96861.02
2019-03-20T02:48:34.526Z,96860.55
2019-03-20T02:49:37.975Z,96854.83
2019-03-20T02:50:41.404Z,96850.64
2019-03-20T02:51:44.855Z,96850.98
2019-03-20T02:52:48.260Z,96849.78
2019-03-20T02:53:51.711Z,96848.56
2019-03-20T02:54:55.159Z,96857.34
2019-03-20T02:55:58.594Z,96849.78
2019-03-20T02:57:02.034Z,96846.96
2019-03-20T02:58:05.595Z,96845.02
2019-03-20T02:59:09.050Z,96847.56
2019-03-20T03:00:19.887Z,96848.77
2019-03-20T03:01:23.420Z,96850.89
2019-03-20T03:02:26.946Z,96840.70
2019-03-20T03:03:30.396Z,96850.25
2019-03-20T03:04:33.909Z,96848.83
2019-03-20T03:05:37.409Z,96841.52
2019-03-20T03:06:40.898Z,96847.91
2019-03-20T03:07:44.411Z,96849.30
2019-03-20T03:08:47.828Z,96853.75
2019-03-20T03:09:51.277Z,96851.94
2019-03-20T03:10:55.788Z,96849.34
2019-03-20T03:11:59.328Z,96845.84
2019-03-20T03:13:02.762Z,96854.50
2019-03-20T03:14:06.246Z,96856.73
2019-03-20T03:15:11.037Z,96853.02
2019-03-20T03:16:14.455Z,96854.84
2019-03-20T03:17:17.890Z,96856.14
2019-03-20T03:18:21.320Z,96856.78
2019-03-20T03:19:24.743Z,96866.13
2019-03-20T03:20:28.259Z,96856.23
2019-03-20T03:21:31.712Z,96854.36
2019-03-20T03:22:35.254Z,96857.21
2019-03-20T03:23:38.684Z,96860.84
2019-03-20T03:24:42.107Z,96859.98
2019-03-20T03:25:45.562Z,96868.63
2019-03-20T03:26:48.987Z,96863.36
2019-03-20T03:27:52.418Z,96865.31
2019-03-20T03:28:55.844Z,96870.58
2019-03-20T03:29:59.347Z,96866.25
2019-03-20T03:31:02.812Z,96868.55
2019-03-20T03:32:06.250Z,96871.66
2019-03-20T03:33:09.677Z,96875.47
2019-03-20T03:34:13.192Z,96877.28
2019-03-20T03:35:19.642Z,96878.58
2019-03-20T03:36:22.095Z,96871.62
2019-03-20T03:37:25.558Z,96875.33
2019-03-20T03:38:29.051Z,96878.88
2019-03-20T03:39:32.477Z,96876.20
2019-03-20T03:40:35.913Z,96872.19
2019-03-20T03:41:39.428Z,96878.15
2019-03-20T03:42:43.171Z,96875.55
2019-03-20T03:43:46.621Z,96875.85
2019-03-20T03:44:50.122Z,96874.39
2019-03-20T03:45:53.520Z,96873.09
2019-03-20T03:46:57.002Z,96874.90
2019-03-20T03:48:00.453Z,96878.28
2019-03-20T03:49:03.870Z,96880.95
2019-03-20T03:50:08.735Z,96881.34
2019-03-20T03:51:12.160Z,96878.53
2019-03-20T03:52:15.622Z,96885.27
2019-03-20T03:53:19.038Z,96885.97
2019-03-20T03:54:22.488Z,96885.59
2019-03-20T03:55:25.905Z,96888.09
2019-03-20T03:56:29.340Z,96878.27
2019-03-20T03:57:32.987Z,96880.12
2019-03-20T03:58:36.427Z,96877.96
2019-03-20T03:59:39.844Z,96879.81
2019-03-20T04:00:43.348Z,96875.41
2019-03-20T04:01:46.846Z,96879.98
2019-03-20T04:02:50.300Z,96877.88
2019-03-20T04:03:53.738Z,96883.87
2019-03-20T04:04:57.227Z,96883.14
2019-03-20T04:06:00.674Z,96889.92
2019-03-20T04:07:04.173Z,96890.36
2019-03-20T04:08:07.624Z,96886.70
2019-03-20T04:09:11.224Z,96888.16
2019-03-20T04:10:16.868Z,96890.30
2019-03-20T04:11:20.280Z,96896.69
2019-03-20T04:12:23.693Z,96894.69
2019-03-20T04:13:27.134Z,96897.20
2019-03-20T04:14:30.564Z,96897.49
2019-03-20T04:15:36.420Z,96898.14
2019-03-20T04:16:39.152Z,96896.51
2019-03-20T04:17:42.642Z,96898.20
2019-03-20T04:18:46.184Z,96903.52
2019-03-20T04:19:49.605Z,96899.87
2019-03-20T04:20:53.133Z,96899.80
2019-03-20T04:21:56.552Z,96900.31
2019-03-20T04:22:59.991Z,96906.69
2019-03-20T04:24:03.585Z,96903.53
2019-03-20T04:25:08.876Z,96910.72
2019-03-20T04:26:12.308Z,96901.98
2019-03-20T04:27:15.799Z,96905.39
2019-03-20T04:28:19.229Z,96913.70
2019-03-20T04:29:22.676Z,96908.27
2019-03-20T04:30:26.128Z,96902.79
2019-03-20T04:31:29.643Z,96908.25
2019-03-20T04:32:33.160Z,96905.98
2019-03-20T04:33:36.659Z,96900.76
2019-03-20T04:34:40.102Z,96903.80
2019-03-20T04:35:43.543Z,96905.20
2019-03-20T04:36:48.222Z,96910.39
2019-03-20T04:37:51.804Z,96911.66
2019-03-20T04:38:55.223Z,96906.24
2019-03-20T04:39:58.737Z,96908.58
2019-03-20T04:41:02.170Z,96911.47
2019-03-20T04:42:05.596Z,96915.88
2019-03-20T04:43:09.031Z,96915.55
2019-03-20T04:44:12.469Z,96916.68
2019-03-20T04:45:16.659Z,96915.56
2019-03-20T04:46:20.092Z,96916.53
2019-03-20T04:47:23.530Z,96913.70
2019-03-20T04:48:26.959Z,96915.27
2019-03-20T04:49:30.386Z,96914.80
2019-03-20T04:50:33.831Z,96913.49
2019-03-20T04:51:37.257Z,96918.89
2019-03-20T04:52:40.690Z,96920.90
2019-03-20T04:53:44.119Z,96914.05
2019-03-20T04:54:47.554Z,96916.47
2019-03-20T04:55:50.995Z,96915.65
2019-03-20T04:56:54.450Z,96922.34
2019-03-20T04:57:57.891Z,96924.09
2019-03-20T04:59:01.325Z,96925.56
2019-03-20T05:00:07.900Z,96925.42
2019-03-20T05:01:11.352Z,96921.87
2019-03-20T05:02:14.848Z,96922.02
2019-03-20T05:03:18.281Z,96925.84
2019-03-20T05:04:21.702Z,96923.39
2019-03-20T05:05:25.132Z,96920.06
2019-03-20T05:06:28.588Z,96927.13
2019-03-20T05:07:32.114Z,96930.34
2019-03-20T05:08:35.519Z,96929.41
2019-03-20T05:09:38.946Z,96930.38
2019-03-20T05:10:42.385Z,96938.31
2019-03-20T05:11:45.870Z,96934.84
2019-03-20T05:12:49.413Z,96939.98
2019-03-20T05:13:52.837Z,96939.47
2019-03-20T05:14:56.275Z,96943.98
2019-03-20T05:15:59.696Z,96941.38
2019-03-20T05:17:03.152Z,96940.80
2019-03-20T05:18:06.645Z,96948.84
2019-03-20T05:19:10.133Z,96947.53
2019-03-20T05:20:21.574Z,96948.50
2019-03-20T05:21:24.997Z,96951.22
2019-03-20T05:22:28.446Z,96957.66
2019-03-20T05:23:31.874Z,96956.29
2019-03-20T05:24:35.324Z,96957.25
2019-03-20T05:25:38.776Z,96961.59
2019-03-20T05:26:42.187Z,96959.03
2019-03-20T05:27:45.641Z,96959.81
2019-03-20T05:28:49.064Z,96966.14
2019-03-20T05:29:52.499Z,96964.47
2019-03-20T05:30:55.928Z,96965.36
2019-03-20T05:31:59.363Z,96966.03
2019-03-20T05:33:02.880Z,96969.07
2019-03-20T05:34:06.375Z,96964.14
2019-03-20T05:35:09.941Z,96972.92
2019-03-20T05:36:13.406Z,96970.14
2019-03-20T05:37:16.905Z,96966.81
2019-03-20T05:38:20.376Z,96969.21
2019-03-20T05:39:23.890Z,96968.98
2019-03-20T05:40:27.327Z,96971.09
2019-03-20T05:41:30.748Z,96972.65
2019-03-20T05:42:34.176Z,96975.24
2019-03-20T05:43:37.622Z,96970.64
2019-03-20T05:44:41.070Z,96974.30
2019-03-20T05:45:44.518Z,96975.31
2019-03-20T05:46:47.939Z,96977.26
2019-03-20T05:47:51.370Z,96975.08
2019-03-20T05:48:54.812Z,96979.62
2019-03-20T05:49:58.240Z,96977.83
2019-03-20T05:51:01.674Z,96980.03
2019-03-20T05:52:05.171Z,96983.88
2019-03-20T05:53:08.605Z,96981.96
2019-03-20T05:54:12.047Z,96980.92
2019-03-20T05:55:15.619Z,96985.11
2019-03-20T05:56:19.040Z,96982.59
2019-03-20T05:57:22.464Z,96980.84
2019-03-20T05:58:25.961Z,96982.36
2019-03-20T05:59:29.402Z,96986.19
2019-03-20T06:00:34.516Z,96987.55
2019-03-20T06:01:37.923Z,96985.68
2019-03-20T06:02:41.415Z,96989.89
2019-03-20T06:03:44.844Z,96989.83
2019-03-20T06:04:48.302Z,96992.54
2019-03-20T06:05:51.728Z,96990.88
2019-03-20T06:06:55.294Z,96996.30
2019-03-20T06:07:58.723Z,96997.81
2019-03-20T06:09:02.149Z,96999.63
2019-03-20T06:10:11.312Z,96997.55
2019-03-20T06:11:14.756Z,96999.34
2019-03-20T06:12:18.180Z,97003.52
2019-03-20T06:13:21.685Z,97000.79
2019-03-20T06:14:25.150Z,97005.20
2019-03-20T06:15:28.555Z,97007.16
2019-03-20T06:16:32.061Z,97006.39
2019-03-20T06:17:35.499Z,97011.05
2019-03-20T06:18:38.932Z,97011.58
2019-03-20T06:19:42.352Z,97012.64
2019-03-20T06:20:45.792Z,97008.20
2019-03-20T06:21:49.322Z,97014.84
2019-03-20T06:22:52.748Z,97013.47
2019-03-20T06:23:56.251Z,97017.73
2019-03-20T06:24:59.669Z,97016.20
2019-03-20T06:26:03.246Z,97015.72
2019-03-20T06:27:06.700Z,97018.58
2019-03-20T06:28:10.120Z,97018.35
2019-03-20T06:29:13.566Z,97013.32
2019-03-20T06:30:18.928Z,97020.89
2019-03-20T06:31:22.382Z,97027.00
2019-03-20T06:32:25.830Z,97023.29
2019-03-20T06:33:29.263Z,97025.30
2019-03-20T06:34:32.678Z,97027.73
2019-03-20T06:35:36.106Z,97023.92
2019-03-20T06:36:39.547Z,97022.41
2019-03-20T06:37:43.057Z,97025.77
2019-03-20T06:38:46.483Z,97027.59
2019-03-20T06:39:49.910Z,97028.63
2019-03-20T06:40:53.334Z,97029.04
2019-03-20T06:41:56.785Z,97033.38
2019-03-20T06:43:00.229Z,97033.00
2019-03-20T06:44:03.664Z,97025.66
2019-03-20T06:45:18.336Z,97022.63
2019-03-20T06:46:21.762Z,97025.30
2019-03-20T06:47:25.206Z,97030.00
2019-03-20T06:48:28.635Z,97030.22
2019-03-20T06:49:32.053Z,97036.08
2019-03-20T06:50:35.556Z,97038.70
2019-03-20T06:51:39.054Z,97035.39
2019-03-20T06:52:42.580Z,97035.73
2019-03-20T06:53:46.031Z,97031.09
2019-03-20T06:54:49.464Z,97030.88
2019-03-20T06:55:52.908Z,97037.25
2019-03-20T06:56:56.338Z,97033.61
2019-03-20T06:57:59.790Z,97034.97
2019-03-20T06:59:30.328Z,97038.91
2019-03-20T07:00:45.534Z,97046.84
2019-03-20T07:01:48.717Z,97040.44
2019-03-20T07:02:52.614Z,97044.29
2019-03-20T07:04:07.698Z,97049.39
2019-03-20T07:05:19.922Z,97044.67
2019-03-20T07:06:47.474Z,97043.60
2019-03-20T07:07:50.721Z,97046.58
2019-03-20T07:09:21.401Z,97047.93
2019-03-20T07:10:42.831Z,97045.63
2019-03-20T07:11:46.611Z,97054.20
2019-03-20T07:12:50.114Z,97051.40
2019-03-20T07:13:53.647Z,97061.27
2019-03-20T07:14:57.091Z,97064.43
2019-03-20T07:16:00.523Z,97059.66
2019-03-20T07:17:04.093Z,97066.84
2019-03-20T07:18:07.522Z,97062.73
2019-03-20T07:19:10.981Z,97061.87
2019-03-20T07:20:14.407Z,97057.92
2019-03-20T07:21:18.877Z,97059.87
2019-03-20T07:22:22.404Z,97059.05
2019-03-20T07:23:25.833Z,97062.08
2019-03-20T07:24:29.289Z,97057.17
2019-03-20T07:25:32.745Z,97061.80
2019-03-20T07:26:36.247Z,97055.00
2019-03-20T07:27:39.675Z,97052.52
2019-03-20T07:28:43.098Z,97055.91
2019-03-20T07:29:46.620Z,97058.50
2019-03-20T07:30:50.118Z,97061.27
2019-03-20T07:31:53.551Z,97054.97
2019-03-20T07:32:56.982Z,97056.55
2019-03-20T07:34:00.412Z,97057.84
2019-03-20T07:35:04.642Z,97065.25
2019-03-20T07:36:08.206Z,97064.95
2019-03-20T07:37:11.650Z,97066.16
2019-03-20T07:38:15.091Z,97063.77
2019-03-20T07:39:18.514Z,97063.14
2019-03-20T07:40:22.000Z,97069.30
2019-03-20T07:41:25.428Z,97059.06
2019-03-20T07:42:28.849Z,97061.31
2019-03-20T07:43:32.340Z,97058.91
2019-03-20T07:44:35.777Z,97063.23
2019-03-20T07:45:39.231Z,97058.77
2019-03-20T07:46:42.746Z,97053.81
2019-03-20T07:47:46.175Z,97055.11
2019-03-20T07:48:49.611Z,97060.54
2019-03-20T07:49:53.042Z,97057.20
2019-03-20T07:50:56.486Z,97058.72
2019-03-20T07:51:59.924Z,97056.00
2019-03-20T07:53:03.415Z,97057.42
2019-03-20T07:54:06.849Z,97060.08
2019-03-20T07:55:10.396Z,97058.97
2019-03-20T07:56:13.914Z,97054.23
2019-03-20T07:57:17.343Z,97052.73
2019-03-20T07:58:20.837Z,97053.09
2019-03-20T07:59:24.266Z,97054.74
2019-03-20T08:00:27.756Z,97058.28
2019-03-20T08:01:31.244Z,97046.31
2019-03-20T08:02:34.669Z,97054.69
2019-03-20T08:03:38.094Z,97049.64
2019-03-20T08:04:41.518Z,97057.61
2019-03-20T08:05:45.014Z,97058.20
2019-03-20T08:06:48.455Z,97058.36
2019-03-20T08:07:51.889Z,97062.67
2019-03-20T08:08:55.316Z,97064.70
2019-03-20T08:09:58.750Z,97068.77
2019-03-20T08:11:02.249Z,97066.87
2019-03-20T08:12:05.772Z,97066.78
2019-03-20T08:13:09.246Z,97071.93
2019-03-20T08:14:12.668Z,97074.07
2019-03-20T08:15:17.133Z,97070.88
2019-03-20T08:16:20.553Z,97071.56
2019-03-20T08:17:24.062Z,97072.58
2019-03-20T08:18:27.485Z,97076.48
2019-03-20T08:19:30.911Z,97068.39
2019-03-20T08:20:34.407Z,97073.63
2019-03-20T08:21:37.836Z,97065.53
2019-03-20T08:22:41.280Z,97070.50
2019-03-20T08:23:44.779Z,97069.13
2019-03-20T08:24:48.207Z,97068.60
2019-03-20T08:25:51.636Z,97068.29
2019-03-20T08:26:55.078Z,97067.58
2019-03-20T08:27:58.543Z,97061.75
2019-03-20T08:29:01.975Z,97046.86
2019-03-20T08:30:08.705Z,97067.52
2019-03-20T08:31:12.141Z,97068.51
2019-03-20T08:32:15.572Z,97074.68
2019-03-20T08:33:19.146Z,97063.83
2019-03-20T08:34:22.585Z,97072.73
2019-03-20T08:35:26.015Z,97068.83
2019-03-20T08:36:29.441Z,97073.45
2019-03-20T08:37:32.871Z,97068.94
2019-03-20T08:38:36.314Z,97072.62
2019-03-20T08:39:39.739Z,97062.56
2019-03-20T08:40:43.169Z,97065.56
2019-03-20T08:41:46.588Z,97064.26
2019-03-20T08:42:50.029Z,97054.73
2019-03-20T08:43:53.479Z,97059.34
2019-03-20T08:44:56.904Z,97057.87
2019-03-20T08:46:00.337Z,97052.05
2019-03-20T08:47:03.768Z,97062.34
2019-03-20T08:48:07.282Z,97057.73
2019-03-20T08:49:10.801Z,97063.09
2019-03-20T08:50:19.573Z,97062.64
2019-03-20T08:51:23.014Z,97061.14
2019-03-20T08:52:26.459Z,97063.30
2019-03-20T08:53:29.874Z,97063.51
2019-03-20T08:54:33.469Z,97062.77
2019-03-20T08:55:36.894Z,97062.06
2019-03-20T08:56:40.315Z,97065.06
2019-03-20T08:57:43.879Z,97060.83
2019-03-20T08:58:47.302Z,97058.92
2019-03-20T08:59:50.753Z,97061.75
2019-03-20T09:00:54.242Z,97059.06
2019-03-20T09:01:57.729Z,97064.45
2019-03-20T09:03:01.155Z,97065.90
2019-03-20T09:04:04.753Z,97057.37
2019-03-20T09:05:10.228Z,97062.83
2019-03-20T09:06:13.730Z,97060.98
2019-03-20T09:07:17.154Z,97063.42
2019-03-20T09:08:28.793Z,97062.03
2019-03-20T09:09:25.809Z,97065.03
2019-03-20T09:10:29.318Z,97066.72
2019-03-20T09:11:32.906Z,97062.88
2019-03-20T09:12:36.371Z,97060.13
2019-03-20T09:13:39.869Z,97064.89
2019-03-20T09:14:43.299Z,97065.74
2019-03-20T09:15:46.739Z,97059.14
2019-03-20T09:16:50.185Z,97060.19
2019-03-20T09:17:53.682Z,97063.88
2019-03-20T09:18:57.119Z,97066.55
2019-03-20T09:20:00.549Z,97066.39
2019-03-20T09:21:04.072Z,97062.84
2019-03-20T09:22:07.498Z,97066.30
2019-03-20T09:23:10.923Z,97071.98
2019-03-20T09:24:14.358Z,97066.55
2019-03-20T09:25:18.718Z,97061.53
2019-03-20T09:26:22.156Z,97064.45
2019-03-20T09:27:25.617Z,97061.81
2019-03-20T09:28:29.041Z,97061.06
2019-03-20T09:29:36.341Z,97058.45
2019-03-20T09:30:37.660Z,97062.74
2019-03-20T09:31:41.102Z,97061.33
2019-03-20T09:32:44.934Z,97062.47
2019-03-20T09:33:48.404Z,97069.70
2019-03-20T09:34:51.809Z,97067.22
2019-03-20T09:35:55.295Z,97065.67
2019-03-20T09:36:58.737Z,97064.52
2019-03-20T09:38:02.164Z,97062.07
2019-03-20T09:39:07.521Z,97060.63
2019-03-20T09:40:14.046Z,97066.39
2019-03-20T09:41:17.462Z,97067.54
2019-03-20T09:42:20.926Z,97064.20
2019-03-20T09:43:24.367Z,97063.91
2019-03-20T09:44:27.789Z,97067.34
2019-03-20T09:45:31.284Z,97064.58
2019-03-20T09:46:34.717Z,97064.48
2019-03-20T09:47:38.221Z,97066.62
2019-03-20T09:48:41.678Z,97067.03
2019-03-20T09:49:45.136Z,97068.70
2019-03-20T09:50:48.542Z,97067.63
2019-03-20T09:51:51.966Z,97067.44
2019-03-20T09:52:55.571Z,97069.34
2019-03-20T09:53:59.013Z,97064.03
2019-03-20T09:55:02.472Z,97064.41
2019-03-20T09:56:06.033Z,97062.36
2019-03-20T09:57:09.461Z,97059.01
2019-03-20T09:58:12.914Z,97065.27
2019-03-20T09:59:16.335Z,97063.30
2019-03-20T10:00:29.512Z,97062.98
2019-03-20T10:01:33.005Z,97071.27
2019-03-20T10:02:36.495Z,97069.52
2019-03-20T10:03:40.008Z,97067.17
2019-03-20T10:04:43.553Z,97068.75
2019-03-20T10:05:47.178Z,97064.38
2019-03-20T10:06:50.602Z,97067.82
2019-03-20T10:07:54.256Z,97062.94
2019-03-20T10:08:57.804Z,97062.08
2019-03-20T10:10:01.250Z,97057.88
2019-03-20T10:11:04.817Z,97057.13
2019-03-20T10:12:08.326Z,97058.02
2019-03-20T10:13:11.752Z,97061.17
2019-03-20T10:14:15.357Z,97057.70
2019-03-20T10:15:20.368Z,97052.27
2019-03-20T10:16:23.917Z,97064.03
2019-03-20T10:17:27.512Z,97056.06
2019-03-20T10:18:30.962Z,97053.43
2019-03-20T10:19:34.416Z,97053.64
2019-03-20T10:20:37.908Z,97060.09
2019-03-20T10:21:41.402Z,97061.59
2019-03-20T10:22:44.906Z,97067.75
2019-03-20T10:23:48.419Z,97065.42
2019-03-20T10:24:51.890Z,97068.94
2019-03-20T10:25:55.428Z,97063.85
2019-03-20T10:26:58.866Z,97065.39
2019-03-20T10:28:02.306Z,97063.94
2019-03-20T10:29:05.833Z,97063.94
2019-03-20T10:30:27.920Z,97062.98
2019-03-20T10:31:31.363Z,97067.26
2019-03-20T10:32:34.791Z,97068.52
2019-03-20T10:33:38.205Z,97070.71
2019-03-20T10:34:41.718Z,97068.52
2019-03-20T10:35:50.266Z,97069.11
2019-03-20T10:36:50.461Z,97068.55
2019-03-20T10:37:53.885Z,97067.13
2019-03-20T10:39:06.058Z,97074.34
2019-03-20T10:40:02.562Z,97076.22
2019-03-20T10:41:06.298Z,97076.58
2019-03-20T10:42:12.235Z,97069.82
2019-03-20T10:43:14.960Z,97074.08
2019-03-20T10:44:18.405Z,97077.61
2019-03-20T10:45:22.191Z,97078.65
2019-03-20T10:46:25.636Z,97076.38
2019-03-20T10:47:29.086Z,97075.70
2019-03-20T10:48:32.521Z,97075.70
2019-03-20T10:49:35.949Z,97075.44
2019-03-20T10:50:39.462Z,97079.56
2019-03-20T10:51:42.954Z,97073.25
2019-03-20T10:52:46.394Z,97073.25
2019-03-20T10:53:49.854Z,97076.98
2019-03-20T10:54:53.299Z,97076.67
2019-03-20T10:55:56.805Z,97071.19
2019-03-20T10:57:00.282Z,97064.90
2019-03-20T10:58:03.946Z,97064.90
2019-03-20T10:59:07.404Z,97073.21
2019-03-20T11:00:17.038Z,97081.77
2019-03-20T11:01:20.476Z,97072.73
2019-03-20T11:02:23.937Z,97075.45
2019-03-20T11:03:27.438Z,97077.57
2019-03-20T11:04:30.926Z,97081.61
2019-03-20T11:05:34.359Z,97075.05
2019-03-20T11:06:37.784Z,97067.38
2019-03-20T11:07:41.328Z,97068.49
2019-03-20T11:08:44.828Z,97065.20
2019-03-20T11:09:48.449Z,97071.45
2019-03-20T11:10:52.019Z,97069.05
2019-03-20T11:11:55.452Z,97072.00
2019-03-20T11:12:58.985Z,97072.00
2019-03-20T11:14:02.448Z,97068.27
2019-03-20T11:15:08.935Z,97071.33
2019-03-20T11:16:12.386Z,97069.03
2019-03-20T11:17:15.827Z,97077.91
2019-03-20T11:18:19.297Z,97080.84
2019-03-20T11:19:22.852Z,97078.77
2019-03-20T11:20:26.420Z,97081.06
2019-03-20T11:21:29.856Z,97080.52
2019-03-20T11:22:33.315Z,97069.59
2019-03-20T11:23:36.845Z,97077.02
2019-03-20T11:24:40.304Z,97082.83
2019-03-20T11:25:43.726Z,97086.53
2019-03-20T11:26:47.226Z,97081.27
2019-03-20T11:27:50.779Z,97082.13
2019-03-20T11:28:54.229Z,97088.77
2019-03-20T11:29:57.741Z,97084.83
2019-03-20T11:31:01.160Z,97085.33
2019-03-20T11:32:04.735Z,97083.99
2019-03-20T11:33:08.226Z,97084.81
2019-03-20T11:34:11.671Z,97088.45
2019-03-20T11:35:15.257Z,97081.84
2019-03-20T11:36:18.777Z,97087.71
2019-03-20T11:37:22.213Z,97086.25
2019-03-20T11:38:25.789Z,97086.19
2019-03-20T11:39:30.137Z,97077.75
2019-03-20T11:40:36.763Z,97075.23
2019-03-20T11:41:40.261Z,97073.73
2019-03-20T11:42:43.883Z,97080.08
2019-03-20T11:43:47.337Z,97081.08
2019-03-20T11:44:50.934Z,97076.66
2019-03-20T11:45:54.502Z,97079.59
2019-03-20T11:46:58.141Z,97075.77
2019-03-20T11:48:01.697Z,97072.48
2019-03-20T11:49:05.264Z,97079.48
2019-03-20T11:50:14.558Z,97075.42
2019-03-20T11:51:18.027Z,97073.30
2019-03-20T11:52:21.530Z,97072.99
2019-03-20T11:53:25.045Z,97075.08
2019-03-20T11:54:28.483Z,97074.19
2019-03-20T11:55:32.080Z,97076.36
2019-03-20T11:56:35.764Z,97065.19
2019-03-20T11:57:39.339Z,97067.50
2019-03-20T11:58:42.861Z,97069.73
2019-03-20T11:59:46.287Z,97071.25
2019-03-20T12:00:49.825Z,97062.52
2019-03-20T12:01:53.313Z,97064.33
2019-03-20T12:02:56.754Z,97062.05
2019-03-20T12:04:00.248Z,97066.10
2019-03-20T12:05:04.510Z,97058.69
2019-03-20T12:06:08.104Z,97062.76
2019-03-20T12:07:11.694Z,97063.94
2019-03-20T12:08:15.153Z,97059.14
2019-03-20T12:09:18.711Z,97062.11
2019-03-20T12:10:26.638Z,97062.38
2019-03-20T12:11:30.166Z,97072.05
2019-03-20T12:12:33.626Z,97073.95
2019-03-20T12:13:37.054Z,97070.08
2019-03-20T12:14:40.577Z,97073.55
2019-03-20T12:15:44.074Z,97063.09
2019-03-20T12:16:47.624Z,97068.80
2019-03-20T12:17:51.067Z,97065.09
2019-03-20T12:18:54.517Z,97061.59
2019-03-20T12:19:57.960Z,97063.75
2019-03-20T12:21:01.459Z,97061.33
2019-03-20T12:22:04.982Z,97066.71
2019-03-20T12:23:08.433Z,97067.11
2019-03-20T12:24:11.954Z,97062.18
2019-03-20T12:25:17.631Z,97061.82
2019-03-20T12:26:21.066Z,97058.13
2019-03-20T12:27:24.529Z,97054.30
2019-03-20T12:28:27.977Z,97053.73
2019-03-20T12:29:31.467Z,97055.62
2019-03-20T12:30:36.992Z,97068.28